Time;durP1;ratioP1;P1;durP2;ratioP2;P2;SDS_P1;SDS_P2;PMS_P1;PMS_P2;Temp;Humidity;BMP_temperature;BMP_pressure;BME280_temperature;BME280_humidity;BME280_pressure;Samples;Min_cycle;Max_cycle;Signal;HPM_P1;HPM_P2
2023/05/07 00:00:29;;;;;;;1.42;1.33;;;9.70;99.90;;;;;;4431494;32;20504;-65
2023/05/07 00:02:55;;;;;;;0.80;0.80;;;9.70;99.90;;;;;;4435404;32;20081;-66
2023/05/07 00:05:20;;;;;;;0.80;0.80;;;9.60;99.90;;;;;;4430509;32;20074;-66
2023/05/07 00:07:46;;;;;;;1.85;1.00;;;9.60;99.90;;;;;;4429730;32;20085;-66
2023/05/07 00:10:12;;;;;;;7.53;2.17;;;9.70;99.90;;;;;;4423434;32;20058;-66
2023/05/07 00:12:38;;;;;;;1.10;0.90;;;9.60;99.90;;;;;;4430294;32;20119;-66
2023/05/07 00:15:04;;;;;;;0.50;0.50;;;9.60;99.90;;;;;;4430607;32;20445;-66
2023/05/07 00:17:30;;;;;;;0.90;0.90;;;9.60;99.90;;;;;;4432503;32;20181;-66
2023/05/07 00:19:55;;;;;;;0.88;0.85;;;9.60;99.90;;;;;;4425861;32;20148;-66
2023/05/07 00:22:21;;;;;;;0.82;0.82;;;9.60;99.90;;;;;;4429739;32;20440;-66
2023/05/07 00:24:47;;;;;;;1.40;1.23;;;9.60;99.90;;;;;;4429175;32;20081;-66
2023/05/07 00:27:12;;;;;;;2.83;1.50;;;9.60;99.90;;;;;;4429649;32;20073;-65
2023/05/07 00:29:38;;;;;;;1.33;0.98;;;9.70;99.90;;;;;;4428845;32;20441;-66
2023/05/07 00:32:04;;;;;;;0.70;0.70;;;9.70;99.90;;;;;;4430840;32;20525;-66
2023/05/07 00:34:29;;;;;;;0.75;0.73;;;9.70;99.90;;;;;;4430774;32;20061;-67
2023/05/07 00:36:55;;;;;;;3.60;0.55;;;9.70;99.90;;;;;;4430507;32;20178;-65
2023/05/07 00:39:20;;;;;;;4.07;0.70;;;9.70;99.90;;;;;;4430717;32;20060;-65
2023/05/07 00:41:47;;;;;;;0.98;0.93;;;9.70;99.90;;;;;;4430165;32;20520;-69
2023/05/07 00:44:12;;;;;;;1.60;1.30;;;9.60;99.90;;;;;;4423832;32;20105;-65
2023/05/07 00:46:38;;;;;;;2.65;1.40;;;9.60;99.90;;;;;;4431752;32;20415;-65
2023/05/07 00:49:04;;;;;;;0.80;0.80;;;9.60;99.90;;;;;;4434215;32;20053;-66
2023/05/07 00:51:30;;;;;;;0.88;0.88;;;9.60;99.90;;;;;;4432284;32;20136;-66
2023/05/07 00:53:56;;;;;;;1.45;1.27;;;9.60;99.90;;;;;;4432494;32;20131;-66
2023/05/07 00:56:23;;;;;;;1.10;0.57;;;9.70;99.90;;;;;;4430125;32;20082;-66
2023/05/07 00:58:49;;;;;;;3.78;0.68;;;9.60;99.90;;;;;;4431728;32;20512;-66
2023/05/07 01:01:16;;;;;;;0.82;0.80;;;9.70;99.90;;;;;;4431240;32;20414;-66
2023/05/07 01:03:42;;;;;;;1.00;0.90;;;9.80;99.90;;;;;;4428628;32;20061;-64
2023/05/07 01:06:09;;;;;;;0.70;0.70;;;9.70;99.90;;;;;;4433117;32;20568;-66
2023/05/07 01:08:35;;;;;;;1.58;0.93;;;9.80;99.90;;;;;;4430897;32;20056;-65
2023/05/07 01:11:01;;;;;;;4.80;2.00;;;9.80;99.90;;;;;;4430861;32;20085;-65
2023/05/07 01:13:27;;;;;;;0.62;0.62;;;9.80;99.90;;;;;;4433194;32;20073;-66
2023/05/07 01:15:53;;;;;;;0.60;0.60;;;9.80;99.90;;;;;;4431468;32;20081;-67
2023/05/07 01:18:19;;;;;;;3.03;1.65;;;9.80;99.90;;;;;;4431983;32;20086;-67
2023/05/07 01:20:45;;;;;;;1.08;0.62;;;9.70;99.90;;;;;;4430289;32;20076;-67
2023/05/07 01:23:11;;;;;;;0.50;0.50;;;9.70;99.90;;;;;;4431848;32;20116;-67
2023/05/07 01:25:36;;;;;;;0.50;0.50;;;9.70;99.90;;;;;;4431543;32;20498;-67
2023/05/07 01:28:02;;;;;;;0.68;0.68;;;9.70;99.90;;;;;;4432843;32;20077;-67
2023/05/07 01:30:29;;;;;;;1.48;1.05;;;9.80;99.90;;;;;;4431244;32;20478;-67
2023/05/07 01:33:04;;;;;;;0.77;0.77;;;9.80;99.90;;;;;;4431928;32;20062;-67
2023/05/07 01:35:35;;;;;;;0.50;0.50;;;9.80;99.90;;;;;;4431279;32;20086;-67
2023/05/07 01:38:04;;;;;;;1.62;0.73;;;9.80;99.90;;;;;;4429813;32;20111;-67
2023/05/07 01:40:30;;;;;;;0.55;0.55;;;9.70;99.90;;;;;;4428812;32;20069;-67
2023/05/07 01:42:56;;;;;;;0.70;0.70;;;9.70;99.90;;;;;;4429181;32;20070;-66
2023/05/07 01:45:21;;;;;;;4.20;1.67;;;9.80;99.90;;;;;;4430634;32;20143;-67
2023/05/07 01:47:47;;;;;;;0.68;0.68;;;9.80;99.90;;;;;;4432838;32;21176;-67
2023/05/07 01:50:15;;;;;;;0.62;0.62;;;9.70;99.90;;;;;;4431838;32;20508;-67
2023/05/07 01:52:42;;;;;;;1.20;0.95;;;9.70;99.90;;;;;;4433274;32;20073;-67
2023/05/07 01:55:07;;;;;;;1.15;0.90;;;9.70;99.90;;;;;;4433204;32;20093;-67
2023/05/07 01:57:33;;;;;;;0.70;0.70;;;9.70;99.90;;;;;;4432387;32;20354;-67
2023/05/07 01:59:58;;;;;;;0.57;0.57;;;9.70;99.90;;;;;;4431979;32;20081;-67
2023/05/07 02:02:24;;;;;;;9.18;0.90;;;9.70;99.90;;;;;;4431400;32;20073;-67
2023/05/07 02:04:49;;;;;;;4.40;1.73;;;9.60;99.90;;;;;;4429774;32;20517;-66
2023/05/07 02:07:15;;;;;;;0.82;0.75;;;9.70;99.90;;;;;;4430211;32;20065;-67
2023/05/07 02:09:40;;;;;;;0.85;0.75;;;9.60;99.90;;;;;;4429220;32;20442;-67
2023/05/07 02:12:06;;;;;;;1.58;0.80;;;9.70;99.90;;;;;;4430404;32;20210;-67
2023/05/07 02:14:31;;;;;;;0.73;0.73;;;9.60;99.90;;;;;;4430884;32;20064;-67
2023/05/07 02:16:57;;;;;;;1.67;1.27;;;9.60;99.90;;;;;;4433577;32;20137;-67
2023/05/07 02:19:22;;;;;;;0.80;0.80;;;9.60;99.90;;;;;;4424906;32;20563;-67
2023/05/07 02:21:48;;;;;;;1.23;0.88;;;9.60;99.90;;;;;;4430681;32;20077;-67
2023/05/07 02:24:13;;;;;;;2.40;1.20;;;9.60;99.90;;;;;;4432255;32;20065;-68
2023/05/07 02:26:41;;;;;;;1.40;1.00;;;9.60;99.90;;;;;;4431213;32;20072;-67
2023/05/07 02:29:06;;;;;;;1.10;0.80;;;9.60;99.90;;;;;;4432567;32;20447;-66
2023/05/07 02:31:33;;;;;;;1.45;0.70;;;9.60;99.90;;;;;;4433182;32;20116;-67
2023/05/07 02:33:59;;;;;;;1.73;0.80;;;9.60;99.90;;;;;;4435590;32;20185;-66
2023/05/07 02:36:25;;;;;;;2.72;1.08;;;9.60;99.90;;;;;;4415280;32;20168;-67
2023/05/07 02:38:50;;;;;;;0.70;0.70;;;9.60;99.90;;;;;;4433052;32;20148;-68
2023/05/07 02:41:16;;;;;;;0.60;0.60;;;9.60;99.90;;;;;;4429633;32;20419;-66
2023/05/07 02:43:41;;;;;;;2.12;0.77;;;9.60;99.90;;;;;;4430682;32;20069;-67
2023/05/07 02:46:08;;;;;;;0.50;0.50;;;9.60;99.90;;;;;;4430765;32;20081;-67
2023/05/07 02:48:34;;;;;;;0.60;0.60;;;9.60;99.90;;;;;;4423856;32;20090;-66
2023/05/07 02:51:00;;;;;;;0.82;0.70;;;9.60;99.90;;;;;;4431166;32;20077;-67
2023/05/07 02:53:26;;;;;;;0.40;0.40;;;9.60;99.90;;;;;;4430932;32;20128;-67
2023/05/07 02:55:53;;;;;;;0.50;0.50;;;9.60;99.90;;;;;;4425901;32;20080;-67
2023/05/07 02:58:19;;;;;;;0.85;0.85;;;9.60;99.90;;;;;;4426633;32;20085;-66
2023/05/07 03:00:44;;;;;;;0.80;0.80;;;9.60;99.90;;;;;;4429501;32;20161;-66
2023/05/07 03:03:10;;;;;;;0.70;0.70;;;9.60;99.90;;;;;;4430977;32;20065;-67
2023/05/07 03:05:36;;;;;;;0.70;0.70;;;9.60;99.90;;;;;;4431224;32;20065;-67
2023/05/07 03:08:01;;;;;;;0.32;0.32;;;9.50;99.90;;;;;;4426392;32;20124;-66
2023/05/07 03:10:28;;;;;;;0.73;0.73;;;9.60;99.90;;;;;;4432495;32;20061;-67
2023/05/07 03:12:53;;;;;;;2.95;0.77;;;9.60;99.90;;;;;;4429359;32;20508;-68
2023/05/07 03:15:19;;;;;;;0.93;0.93;;;9.70;99.90;;;;;;4432272;32;20061;-66
2023/05/07 03:17:45;;;;;;;2.12;0.98;;;9.70;99.90;;;;;;4426072;32;20532;-67
2023/05/07 03:20:11;;;;;;;0.85;0.62;;;9.70;99.90;;;;;;4431678;32;20091;-66
2023/05/07 03:22:36;;;;;;;0.80;0.80;;;9.60;99.90;;;;;;4431318;32;20057;-67
2023/05/07 03:25:02;;;;;;;0.50;0.50;;;9.60;99.90;;;;;;4426355;32;20445;-67
2023/05/07 03:27:27;;;;;;;0.40;0.40;;;9.60;99.90;;;;;;4432272;32;20456;-67
2023/05/07 03:29:53;;;;;;;0.60;0.60;;;9.60;99.90;;;;;;4427542;32;20070;-66
2023/05/07 03:32:18;;;;;;;1.10;0.70;;;9.60;99.90;;;;;;4431132;32;20061;-67
2023/05/07 03:34:44;;;;;;;1.12;0.98;;;9.60;99.90;;;;;;4431742;32;20108;-67
2023/05/07 03:37:09;;;;;;;0.73;0.73;;;9.60;99.90;;;;;;4430334;32;20135;-67
2023/05/07 03:39:35;;;;;;;1.12;0.98;;;9.60;99.90;;;;;;4431359;32;20069;-67
2023/05/07 03:42:00;;;;;;;0.95;0.90;;;9.60;99.90;;;;;;4425003;32;20069;-67
2023/05/07 03:44:26;;;;;;;3.90;0.80;;;9.60;99.90;;;;;;4432347;32;20608;-67
2023/05/07 03:46:51;;;;;;;0.70;0.70;;;9.60;99.90;;;;;;4432586;32;20057;-66
2023/05/07 03:49:17;;;;;;;1.40;1.30;;;9.50;99.90;;;;;;4429540;32;20061;-66
2023/05/07 03:51:43;;;;;;;9.40;1.15;;;9.50;99.90;;;;;;4427754;32;20092;-67
2023/05/07 03:54:08;;;;;;;2.03;0.77;;;9.50;99.90;;;;;;4429752;32;20100;-67
2023/05/07 03:56:34;;;;;;;0.77;0.75;;;9.60;99.90;;;;;;4424011;32;20061;-67
2023/05/07 03:59:00;;;;;;;1.60;1.50;;;9.60;99.90;;;;;;4430460;32;20484;-67
2023/05/07 04:01:26;;;;;;;1.40;0.62;;;9.60;99.90;;;;;;4427769;32;20095;-67
2023/05/07 04:03:51;;;;;;;0.40;0.40;;;9.60;99.90;;;;;;4424745;32;20068;-66
2023/05/07 04:06:17;;;;;;;4.72;0.95;;;9.60;99.90;;;;;;4428496;32;20219;-66
2023/05/07 04:08:43;;;;;;;0.60;0.60;;;9.60;99.90;;;;;;4429178;32;20061;-67
2023/05/07 04:11:08;;;;;;;1.33;0.70;;;9.50;99.90;;;;;;4430356;32;20079;-67
2023/05/07 04:13:34;;;;;;;0.70;0.70;;;9.50;99.90;;;;;;4433738;32;20418;-67
2023/05/07 04:16:02;;;;;;;1.33;1.23;;;9.50;99.90;;;;;;4429449;32;20127;-66
2023/05/07 04:18:27;;;;;;;3.80;0.73;;;9.50;99.90;;;;;;4425389;32;20445;-68
2023/05/07 04:20:53;;;;;;;0.75;0.60;;;9.40;99.90;;;;;;4430326;32;20097;-67
2023/05/07 04:23:19;;;;;;;0.70;0.70;;;9.50;99.90;;;;;;4426065;32;20465;-67
2023/05/07 04:25:45;;;;;;;0.50;0.50;;;9.50;99.90;;;;;;4432599;32;20129;-67
2023/05/07 04:28:11;;;;;;;1.92;1.17;;;9.50;99.90;;;;;;4429862;32;20078;-67
2023/05/07 04:30:36;;;;;;;0.70;0.70;;;9.40;99.90;;;;;;4434869;32;20057;-66
2023/05/07 04:33:02;;;;;;;0.70;0.70;;;9.40;99.90;;;;;;4432303;32;20123;-66
2023/05/07 04:35:28;;;;;;;0.60;0.60;;;9.40;99.90;;;;;;4433145;32;20065;-66
2023/05/07 04:37:53;;;;;;;0.50;0.50;;;9.40;99.90;;;;;;4433348;32;20081;-67
2023/05/07 04:40:19;;;;;;;0.57;0.50;;;9.50;99.90;;;;;;4425946;32;20590;-67
2023/05/07 04:42:45;;;;;;;1.50;0.90;;;9.40;99.90;;;;;;4435293;32;20183;-66
2023/05/07 04:45:12;;;;;;;1.48;0.88;;;9.50;99.90;;;;;;4436877;32;20527;-66
2023/05/07 04:47:37;;;;;;;1.55;0.70;;;9.40;99.90;;;;;;4433161;32;20171;-66
2023/05/07 04:50:03;;;;;;;1.70;0.50;;;9.40;99.90;;;;;;4433788;32;20093;-66
2023/05/07 04:52:28;;;;;;;0.60;0.60;;;9.40;99.90;;;;;;4431466;32;20084;-66
2023/05/07 04:57:22;;;;;;;0.68;0.68;;;9.40;99.90;;;;;;4432701;32;20073;-66
2023/05/07 04:59:48;;;;;;;0.50;0.50;;;9.50;99.90;;;;;;4432165;32;20565;-65
2023/05/07 05:02:14;;;;;;;0.75;0.75;;;9.60;99.90;;;;;;4433967;32;20507;-66
2023/05/07 05:04:39;;;;;;;1.17;0.85;;;9.60;99.90;;;;;;4433820;32;20081;-66
2023/05/07 05:07:05;;;;;;;0.35;0.35;;;9.70;99.90;;;;;;4429709;32;20057;-65
2023/05/07 05:09:32;;;;;;;0.85;0.85;;;9.60;99.90;;;;;;4432378;32;20750;-65
2023/05/07 05:11:57;;;;;;;12.48;1.15;;;9.70;99.90;;;;;;4431435;32;20076;-65
2023/05/07 05:14:23;;;;;;;0.52;0.52;;;9.70;99.90;;;;;;4432782;32;20092;-67
2023/05/07 05:16:48;;;;;;;3.87;0.88;;;9.70;99.90;;;;;;4433286;32;20578;-67
2023/05/07 05:19:14;;;;;;;11.45;3.17;;;9.60;99.90;;;;;;4429640;32;20465;-67
2023/05/07 05:21:39;;;;;;;3.47;0.60;;;9.60;99.90;;;;;;4432793;32;20109;-67
2023/05/07 05:24:05;;;;;;;1.12;1.05;;;9.60;99.90;;;;;;4425194;32;20128;-66
2023/05/07 05:26:30;;;;;;;4.55;1.27;;;9.60;99.90;;;;;;4435407;32;20405;-67
2023/05/07 05:28:56;;;;;;;1.48;0.60;;;9.60;99.90;;;;;;4432388;32;20057;-66
2023/05/07 05:31:21;;;;;;;1.17;0.95;;;9.60;99.90;;;;;;4431328;32;20677;-66
2023/05/07 05:33:47;;;;;;;0.40;0.40;;;9.60;99.90;;;;;;4435668;32;20085;-66
2023/05/07 05:36:13;;;;;;;0.50;0.50;;;9.60;99.90;;;;;;4424230;32;20116;-66
2023/05/07 05:38:39;;;;;;;1.98;0.52;;;9.60;99.90;;;;;;4424597;32;20090;-67
2023/05/07 05:41:04;;;;;;;0.62;0.60;;;9.70;99.90;;;;;;4431791;32;20084;-68
2023/05/07 05:43:30;;;;;;;0.40;0.40;;;9.70;99.90;;;;;;4434946;32;20065;-67
2023/05/07 05:45:56;;;;;;;0.60;0.60;;;9.80;99.90;;;;;;4424125;32;20185;-66
2023/05/07 05:48:22;;;;;;;1.30;0.82;;;9.90;99.90;;;;;;4429154;32;20087;-67
2023/05/07 05:50:48;;;;;;;3.20;0.90;;;9.90;99.90;;;;;;4431764;32;20525;-67
2023/05/07 05:53:13;;;;;;;1.98;1.35;;;9.80;99.90;;;;;;4433299;32;20115;-66
2023/05/07 05:55:39;;;;;;;0.82;0.80;;;9.90;99.90;;;;;;4430565;32;20109;-67
2023/05/07 05:58:04;;;;;;;0.43;0.43;;;10.00;99.90;;;;;;4436828;32;20061;-66
2023/05/07 06:00:30;;;;;;;0.45;0.45;;;10.00;99.90;;;;;;4431231;32;20085;-67
2023/05/07 06:02:56;;;;;;;0.40;0.40;;;10.10;99.90;;;;;;4431963;32;20080;-67
2023/05/07 06:05:22;;;;;;;0.70;0.70;;;10.10;99.90;;;;;;4430064;32;20479;-67
2023/05/07 06:07:47;;;;;;;0.55;0.55;;;10.10;99.90;;;;;;4431261;32;20061;-67
2023/05/07 06:10:13;;;;;;;0.50;0.50;;;10.10;99.90;;;;;;4432254;32;20077;-66
2023/05/07 06:12:39;;;;;;;0.75;0.60;;;10.20;99.90;;;;;;4434802;32;20053;-67
2023/05/07 06:15:05;;;;;;;0.68;0.68;;;10.20;99.90;;;;;;4435028;32;20061;-66
2023/05/07 06:17:31;;;;;;;0.60;0.60;;;10.40;99.90;;;;;;4431230;32;20057;-66
2023/05/07 06:19:56;;;;;;;0.65;0.52;;;10.50;99.90;;;;;;4429736;32;20100;-67
2023/05/07 06:22:22;;;;;;;0.68;0.68;;;10.60;99.90;;;;;;4434882;32;20148;-66
2023/05/07 06:24:47;;;;;;;1.02;0.73;;;10.60;99.90;;;;;;4431588;32;20101;-67
2023/05/07 06:27:13;;;;;;;0.55;0.55;;;10.40;99.90;;;;;;4430165;32;20061;-67
2023/05/07 06:29:38;;;;;;;0.55;0.55;;;10.40;99.90;;;;;;4425792;32;20073;-67
2023/05/07 06:32:08;;;;;;;0.55;0.55;;;10.50;99.90;;;;;;4430679;32;20065;-67
2023/05/07 06:34:33;;;;;;;0.40;0.40;;;10.50;99.90;;;;;;4432210;32;20516;-66
2023/05/07 06:36:59;;;;;;;0.50;0.50;;;10.40;99.90;;;;;;4432782;32;20061;-67
2023/05/07 06:39:24;;;;;;;0.45;0.45;;;10.30;99.90;;;;;;4431382;32;20520;-66
2023/05/07 06:41:50;;;;;;;0.77;0.73;;;10.30;99.90;;;;;;4432852;32;20139;-66
2023/05/07 06:44:15;;;;;;;0.75;0.75;;;10.30;99.90;;;;;;4431264;32;20081;-66
2023/05/07 06:46:41;;;;;;;0.43;0.43;;;10.30;99.90;;;;;;4431343;32;20227;-67
2023/05/07 06:49:07;;;;;;;0.73;0.73;;;10.40;99.90;;;;;;4430497;32;20089;-66
2023/05/07 06:51:32;;;;;;;0.57;0.50;;;10.40;99.90;;;;;;4424749;32;20129;-67
2023/05/07 06:53:57;;;;;;;0.70;0.70;;;10.50;99.90;;;;;;4432701;32;20533;-67
2023/05/07 06:56:23;;;;;;;0.60;0.60;;;10.60;99.90;;;;;;4431734;32;20062;-66
2023/05/07 06:58:49;;;;;;;0.70;0.70;;;10.60;99.90;;;;;;4432181;32;20077;-67
2023/05/07 07:01:15;;;;;;;0.95;0.60;;;10.60;99.90;;;;;;4429330;32;20125;-66
2023/05/07 07:03:40;;;;;;;0.40;0.40;;;10.70;99.90;;;;;;4431733;32;20465;-66
2023/05/07 07:06:06;;;;;;;0.75;0.65;;;10.80;99.90;;;;;;4428037;32;20076;-66
2023/05/07 07:08:31;;;;;;;0.60;0.60;;;10.80;99.90;;;;;;4433684;32;20422;-67
2023/05/07 07:10:57;;;;;;;0.70;0.70;;;10.70;99.90;;;;;;4429461;32;20294;-66
2023/05/07 07:13:24;;;;;;;0.55;0.55;;;10.70;99.90;;;;;;4431865;32;20068;-67
2023/05/07 07:15:49;;;;;;;0.50;0.50;;;10.70;99.90;;;;;;4430752;32;20174;-66
2023/05/07 07:18:15;;;;;;;0.50;0.50;;;10.70;99.90;;;;;;4431603;32;20099;-67
2023/05/07 07:20:40;;;;;;;1.65;1.12;;;10.70;99.90;;;;;;4432059;32;20470;-67
2023/05/07 07:23:06;;;;;;;0.90;0.90;;;10.70;99.90;;;;;;4430848;32;20082;-66
2023/05/07 07:25:32;;;;;;;0.52;0.50;;;10.80;99.90;;;;;;4431372;32;20132;-67
2023/05/07 07:27:57;;;;;;;0.60;0.60;;;10.90;99.90;;;;;;4425596;32;20548;-67
2023/05/07 07:30:23;;;;;;;0.52;0.52;;;11.00;99.90;;;;;;4431405;32;20090;-67
2023/05/07 07:32:49;;;;;;;0.73;0.60;;;11.10;99.90;;;;;;4432388;32;20081;-67
2023/05/07 07:35:14;;;;;;;0.57;0.57;;;11.20;99.90;;;;;;4431636;32;20741;-67
2023/05/07 07:37:40;;;;;;;0.52;0.47;;;11.40;99.90;;;;;;4430482;32;20144;-66
2023/05/07 07:40:07;;;;;;;0.55;0.55;;;11.50;99.90;;;;;;4430710;32;20076;-66
2023/05/07 07:42:32;;;;;;;2.05;0.95;;;11.60;99.90;;;;;;4428685;32;20450;-67
2023/05/07 07:44:58;;;;;;;0.77;0.77;;;11.80;99.90;;;;;;4429175;32;20070;-66
2023/05/07 07:47:23;;;;;;;0.60;0.60;;;11.80;99.90;;;;;;4431373;32;20061;-67
2023/05/07 07:49:49;;;;;;;0.50;0.50;;;11.90;99.90;;;;;;4430063;32;20088;-67
2023/05/07 07:52:14;;;;;;;1.70;0.90;;;12.00;99.90;;;;;;4430177;32;20100;-67
2023/05/07 07:54:40;;;;;;;0.60;0.60;;;12.20;99.90;;;;;;4429647;32;20426;-67
2023/05/07 07:57:05;;;;;;;0.50;0.50;;;12.20;99.90;;;;;;4427959;32;20077;-67
2023/05/07 07:59:31;;;;;;;1.87;0.80;;;12.10;99.90;;;;;;4428083;32;20132;-67
2023/05/07 08:01:57;;;;;;;0.62;0.62;;;12.30;99.90;;;;;;4432476;32;20138;-67
2023/05/07 08:04:23;;;;;;;0.43;0.43;;;12.30;99.90;;;;;;4427815;32;20131;-67
2023/05/07 08:06:48;;;;;;;0.62;0.62;;;12.50;99.90;;;;;;4425498;32;20094;-68
2023/05/07 08:09:14;;;;;;;0.50;0.50;;;12.60;99.90;;;;;;4426975;32;20061;-67
2023/05/07 08:11:40;;;;;;;0.50;0.50;;;12.90;99.90;;;;;;4429185;32;20101;-66
2023/05/07 08:14:05;;;;;;;0.98;0.85;;;13.10;99.90;;;;;;4432818;32;20080;-67
2023/05/07 08:16:31;;;;;;;1.37;0.70;;;13.10;99.90;;;;;;4429108;32;20132;-68
2023/05/07 08:18:56;;;;;;;0.40;0.40;;;12.90;99.90;;;;;;4434743;32;20502;-67
2023/05/07 08:21:22;;;;;;;0.60;0.60;;;13.00;99.90;;;;;;4425384;32;20061;-66
2023/05/07 08:23:48;;;;;;;0.50;0.50;;;13.10;99.90;;;;;;4430007;32;20122;-66
2023/05/07 08:26:14;;;;;;;0.60;0.60;;;13.40;99.90;;;;;;4428798;32;20085;-67
2023/05/07 08:28:39;;;;;;;0.40;0.40;;;13.70;99.90;;;;;;4432174;32;20133;-65
2023/05/07 08:31:05;;;;;;;0.40;0.40;;;13.90;99.90;;;;;;4427035;32;20088;-67
2023/05/07 08:33:31;;;;;;;0.40;0.40;;;14.00;99.90;;;;;;4428318;32;20052;-67
2023/05/07 08:35:56;;;;;;;0.60;0.60;;;14.10;99.90;;;;;;4430656;32;20520;-67
2023/05/07 08:38:22;;;;;;;0.45;0.45;;;14.30;99.90;;;;;;4428180;32;20085;-67
2023/05/07 08:40:47;;;;;;;0.85;0.50;;;14.20;99.90;;;;;;4432378;32;20109;-66
2023/05/07 08:43:14;;;;;;;0.50;0.50;;;14.00;99.90;;;;;;4430045;32;20073;-66
2023/05/07 08:45:40;;;;;;;0.40;0.40;;;13.90;99.90;;;;;;4432011;32;20145;-67
2023/05/07 08:48:13;;;;;;;0.30;0.30;;;13.90;99.90;;;;;;4423475;32;20089;-66
2023/05/07 08:50:39;;;;;;;0.40;0.40;;;14.00;99.90;;;;;;4425036;32;20528;-67
2023/05/07 08:53:05;;;;;;;0.50;0.50;;;14.00;99.90;;;;;;4429507;32;20127;-67
2023/05/07 08:55:31;;;;;;;1.62;0.50;;;13.80;99.90;;;;;;4432490;32;20132;-66
2023/05/07 08:57:59;;;;;;;0.37;0.37;;;13.80;99.90;;;;;;4430798;32;20445;-66
2023/05/07 09:00:25;;;;;;;0.40;0.40;;;13.80;99.90;;;;;;4431091;32;20053;-66
2023/05/07 09:02:51;;;;;;;1.55;1.05;;;14.00;99.90;;;;;;4430092;32;20465;-66
2023/05/07 09:05:17;;;;;;;0.52;0.50;;;13.90;99.90;;;;;;4424911;32;20610;-66
2023/05/07 09:07:42;;;;;;;0.40;0.40;;;13.80;99.90;;;;;;4430879;32;20058;-66
2023/05/07 09:10:08;;;;;;;0.40;0.40;;;13.80;99.90;;;;;;4432720;32;20496;-65
2023/05/07 09:12:36;;;;;;;0.40;0.40;;;13.80;99.90;;;;;;4425610;32;20076;-66
2023/05/07 09:15:02;;;;;;;0.37;0.37;;;13.90;99.90;;;;;;4434121;32;20082;-65
2023/05/07 09:17:28;;;;;;;0.55;0.55;;;14.10;99.90;;;;;;4431523;32;20310;-65
2023/05/07 09:19:53;;;;;;;0.40;0.40;;;14.30;99.90;;;;;;4427367;32;20524;-66
2023/05/07 09:22:19;;;;;;;0.45;0.45;;;14.50;99.90;;;;;;4433302;32;20156;-66
2023/05/07 09:24:49;;;;;;;0.40;0.40;;;14.70;99.90;;;;;;4430837;32;20069;-66
2023/05/07 09:27:14;;;;;;;0.40;0.40;;;15.10;99.90;;;;;;4424791;32;20085;-65
2023/05/07 09:29:41;;;;;;;0.62;0.55;;;15.20;99.90;;;;;;4431266;32;20433;-65
2023/05/07 09:32:07;;;;;;;0.50;0.50;;;14.90;99.90;;;;;;4432778;32;20132;-66
2023/05/07 09:34:34;;;;;;;0.47;0.47;;;15.10;99.90;;;;;;4426608;32;20082;-66
2023/05/07 09:37:02;;;;;;;0.98;0.62;;;15.30;99.90;;;;;;4434483;32;20070;-68
2023/05/07 09:39:49;;;;;;;0.45;0.45;;;15.30;99.90;;;;;;4425361;32;20078;-67
2023/05/07 09:42:15;;;;;;;0.50;0.50;;;15.10;99.90;;;;;;4427363;32;20095;-66
2023/05/07 09:44:42;;;;;;;0.60;0.60;;;14.80;99.90;;;;;;4433948;32;20851;-65
2023/05/07 09:47:10;;;;;;;0.40;0.40;;;14.60;99.90;;;;;;4415536;32;20060;-66
2023/05/07 09:49:36;;;;;;;0.40;0.40;;;14.80;99.90;;;;;;4434745;32;20610;-66
2023/05/07 09:52:06;;;;;;;0.52;0.52;;;14.80;99.90;;;;;;4432761;32;20127;-66
2023/05/07 09:54:33;;;;;;;0.47;0.47;;;14.60;99.90;;;;;;4428226;32;20223;-66
2023/05/07 09:57:02;;;;;;;0.55;0.55;;;14.70;99.90;;;;;;4425038;32;20082;-66
2023/05/07 09:59:31;;;;;;;0.50;0.50;;;14.60;99.90;;;;;;4436064;32;20564;-66
2023/05/07 10:01:58;;;;;;;7.60;0.47;;;14.60;99.90;;;;;;4428306;32;20061;-66
2023/05/07 10:04:26;;;;;;;0.30;0.30;;;14.60;99.90;;;;;;4430952;32;20082;-67
2023/05/07 10:06:52;;;;;;;0.85;0.57;;;14.80;99.90;;;;;;4425493;32;20063;-66
2023/05/07 10:09:18;;;;;;;0.50;0.50;;;14.80;99.90;;;;;;4429310;32;20061;-65
2023/05/07 10:11:44;;;;;;;0.40;0.40;;;14.60;99.90;;;;;;4431482;32;20112;-67
2023/05/07 10:14:10;;;;;;;0.60;0.60;;;14.60;99.90;;;;;;4434414;32;20082;-66
2023/05/07 10:16:37;;;;;;;19.00;0.85;;;14.50;99.90;;;;;;4423785;32;20180;-66
2023/05/07 10:19:06;;;;;;;0.40;0.40;;;14.50;99.90;;;;;;4430117;32;20095;-66
2023/05/07 10:21:36;;;;;;;0.45;0.45;;;14.50;99.90;;;;;;4432160;32;20123;-67
2023/05/07 10:24:13;;;;;;;0.50;0.50;;;14.90;99.90;;;;;;4426965;32;20144;-67
2023/05/07 10:26:41;;;;;;;0.90;0.73;;;15.00;99.90;;;;;;4427056;32;20078;-66
2023/05/07 10:29:15;;;;;;;0.95;0.77;;;15.00;99.90;;;;;;4429980;32;20065;-66
2023/05/07 10:31:55;;;;;;;0.30;0.30;;;15.00;99.90;;;;;;4430932;32;20077;-66
2023/05/07 10:34:27;;;;;;;0.55;0.52;;;15.10;99.90;;;;;;4428979;32;20085;-67
2023/05/07 10:36:55;;;;;;;0.40;0.40;;;15.40;99.90;;;;;;4428639;32;20769;-66
2023/05/07 10:39:21;;;;;;;0.40;0.40;;;15.30;99.90;;;;;;4429727;32;20165;-66
2023/05/07 10:41:47;;;;;;;0.40;0.40;;;15.20;99.90;;;;;;4435305;32;20072;-66
2023/05/07 10:44:26;;;;;;;0.30;0.30;;;15.00;99.90;;;;;;4431654;32;20532;-66
2023/05/07 10:47:13;;;;;;;0.57;0.57;;;14.80;99.90;;;;;;4425990;32;20093;-66
2023/05/07 10:49:45;;;;;;;0.40;0.40;;;14.60;99.90;;;;;;4427411;32;20584;-66
2023/05/07 10:52:20;;;;;;;0.30;0.30;;;14.50;99.90;;;;;;4431021;32;20081;-66
2023/05/07 10:54:46;;;;;;;0.40;0.40;;;14.70;99.90;;;;;;4429349;32;20504;-67
2023/05/07 10:57:32;;;;;;;0.40;0.40;;;14.90;99.90;;;;;;4431294;32;20123;-67
2023/05/07 10:59:58;;;;;;;0.32;0.32;;;15.10;99.90;;;;;;4425024;32;20549;-67
2023/05/07 11:03:01;;;;;;;0.45;0.45;;;15.10;99.90;;;;;;4429582;32;20100;-66
2023/05/07 11:05:29;;;;;;;0.50;0.50;;;15.50;99.90;;;;;;4424304;32;20518;-65
2023/05/07 11:07:56;;;;;;;0.40;0.40;;;15.70;99.90;;;;;;4426298;32;20148;-65
2023/05/07 11:10:22;;;;;;;2.00;1.25;;;16.20;99.90;;;;;;4429847;32;20106;-66
2023/05/07 11:12:50;;;;;;;0.30;0.30;;;16.70;99.90;;;;;;4434044;32;20632;-67
2023/05/07 11:15:35;;;;;;;0.40;0.40;;;17.30;99.90;;;;;;4430576;32;20073;-66
2023/05/07 11:18:01;;;;;;;0.45;0.45;;;17.60;99.90;;;;;;4429427;32;20089;-65
2023/05/07 11:20:47;;;;;;;0.30;0.30;;;17.80;99.90;;;;;;4430995;32;20082;-67
2023/05/07 11:23:35;;;;;;;0.40;0.40;;;18.40;99.90;;;;;;4426147;32;20218;-67
2023/05/07 11:26:05;;;;;;;0.50;0.50;;;19.20;99.90;;;;;;4426448;32;21495;-67
2023/05/07 11:28:37;;;;;;;0.30;0.30;;;19.40;99.90;;;;;;4431057;32;20487;-66
2023/05/07 11:31:03;;;;;;;0.30;0.30;;;19.20;99.90;;;;;;4430302;32;20778;-65
2023/05/07 11:33:31;;;;;;;0.32;0.32;;;18.90;99.90;;;;;;4416755;32;20074;-67
2023/05/07 11:35:57;;;;;;;0.50;0.50;;;18.70;99.90;;;;;;4424298;32;20124;-66
2023/05/07 11:38:23;;;;;;;0.47;0.47;;;19.20;99.90;;;;;;4427953;32;20064;-67
2023/05/07 11:40:51;;;;;;;0.90;0.40;;;19.40;99.90;;;;;;4427354;32;20057;-69
2023/05/07 11:43:17;;;;;;;0.52;0.52;;;19.70;99.80;;;;;;4428448;32;20479;-67
2023/05/07 11:45:43;;;;;;;0.20;0.20;;;20.00;98.70;;;;;;4426976;32;124253;-68
2023/05/07 11:48:08;;;;;;;0.35;0.35;;;19.90;97.40;;;;;;4430850;32;20100;-67
2023/05/07 11:50:34;;;;;;;0.30;0.30;;;20.20;97.90;;;;;;4430193;32;20128;-68
2023/05/07 11:52:59;;;;;;;0.20;0.20;;;20.60;98.10;;;;;;4429485;32;20742;-68
2023/05/07 11:55:25;;;;;;;0.20;0.20;;;20.70;96.90;;;;;;4429407;32;20138;-68
2023/05/07 11:57:51;;;;;;;0.20;0.20;;;21.30;95.20;;;;;;4431031;32;20081;-68
2023/05/07 12:00:17;;;;;;;0.22;0.22;;;21.40;95.00;;;;;;4424267;32;20069;-67
2023/05/07 12:02:45;;;;;;;0.28;0.28;;;21.10;95.50;;;;;;4428539;32;20058;-68
2023/05/07 12:05:10;;;;;;;0.30;0.30;;;21.10;95.70;;;;;;4429437;32;20535;-67
2023/05/07 12:07:36;;;;;;;0.70;0.65;;;21.00;94.60;;;;;;4429404;32;20200;-66
2023/05/07 12:10:06;;;;;;;0.57;0.32;;;21.10;96.30;;;;;;4426914;32;20104;-66
2023/05/07 12:12:38;;;;;;;1.00;0.50;;;21.30;95.10;;;;;;4422934;32;20069;-66
2023/05/07 12:15:04;;;;;;;0.30;0.30;;;21.10;94.90;;;;;;4429696;32;20050;-65
2023/05/07 12:17:30;;;;;;;0.50;0.37;;;20.50;94.20;;;;;;4428147;32;20078;-67
2023/05/07 12:19:55;;;;;;;0.10;0.10;;;20.30;95.20;;;;;;4430513;32;20207;-67
2023/05/07 12:22:21;;;;;;;0.20;0.20;;;20.90;93.20;;;;;;4427043;32;20139;-69
2023/05/07 12:24:49;;;;;;;1.23;0.95;;;21.20;92.60;;;;;;4432817;32;20074;-67
2023/05/07 12:27:16;;;;;;;0.10;0.10;;;22.00;92.50;;;;;;4423184;32;20078;-68
2023/05/07 12:29:46;;;;;;;0.10;0.10;;;21.90;91.10;;;;;;4428789;32;20554;-68
2023/05/07 12:32:14;;;;;;;;;;;21.50;92.00;;;;;;4422495;32;20077;-67
2023/05/07 12:34:41;;;;;;;0.25;0.25;;;21.30;93.00;;;;;;4431996;32;20026;-67
2023/05/07 12:37:06;;;;;;;0.20;0.20;;;20.80;93.60;;;;;;4429187;32;20156;-67
2023/05/07 12:39:32;;;;;;;0.25;0.25;;;20.20;93.30;;;;;;4429896;32;20081;-67
2023/05/07 12:41:59;;;;;;;1.15;0.25;;;19.80;94.20;;;;;;4429532;32;20108;-66
2023/05/07 12:44:29;;;;;;;0.50;0.30;;;20.00;94.20;;;;;;4428498;32;20078;-67
2023/05/07 12:46:55;;;;;;;0.30;0.30;;;20.00;93.20;;;;;;4432610;32;20082;-67
2023/05/07 12:49:23;;;;;;;0.20;0.20;;;20.70;92.70;;;;;;4428366;32;20089;-67
2023/05/07 12:51:48;;;;;;;0.30;0.30;;;21.80;90.90;;;;;;4425887;32;20084;-66